Time;durP1;ratioP1;P1;durP2;ratioP2;P2;SDS_P1;SDS_P2;PMS_P1;PMS_P2;Temp;Humidity;BMP_temperature;BMP_pressure;BME280_temperature;BME280_humidity;BME280_pressure;Samples;Min_cycle;Max_cycle;Signal;HPM_P1;HPM_P2
2022/08/31 00:08:43;;;;;;;8.90;3.05;;;23.20;85.90;;;;;;7495741;79;26740;-58
2022/08/31 00:18:46;;;;;;;5.58;2.33;;;23.10;86.10;;;;;;7451304;79;26246;-58
2022/08/31 00:28:49;;;;;;;5.62;3.30;;;23.20;86.50;;;;;;7375058;80;26266;-57
2022/08/31 00:38:52;;;;;;;8.10;2.77;;;23.10;86.40;;;;;;7480199;78;26339;-58
2022/08/31 00:49:13;;;;;;;7.17;2.67;;;23.00;86.40;;;;;;7493111;78;26290;-57
2022/08/31 00:59:18;;;;;;;9.95;3.20;;;22.90;86.60;;;;;;7488307;78;26278;-58
2022/08/31 01:09:22;;;;;;;6.10;2.80;;;22.90;86.60;;;;;;7496526;78;26735;-57
2022/08/31 01:19:40;;;;;;;7.70;2.77;;;22.90;86.70;;;;;;7443934;79;26752;-58
2022/08/31 01:29:42;;;;;;;9.55;3.02;;;23.00;86.80;;;;;;7513945;78;26230;-58
2022/08/31 01:39:45;;;;;;;4.87;2.77;;;23.00;87.00;;;;;;7498591;78;26356;-58
2022/08/31 01:49:47;;;;;;;4.97;2.70;;;23.00;87.10;;;;;;7491776;78;26350;-57
2022/08/31 01:59:50;;;;;;;5.35;2.72;;;23.00;87.50;;;;;;7502562;78;26408;-57
2022/08/31 02:09:52;;;;;;;5.35;3.05;;;23.00;87.20;;;;;;7504584;78;26825;-58
2022/08/31 02:19:55;;;;;;;6.33;2.70;;;23.00;87.20;;;;;;7444195;79;26242;-58
2022/08/31 02:29:58;;;;;;;4.45;2.70;;;23.00;87.10;;;;;;7609552;78;26688;-57
2022/08/31 02:40:00;;;;;;;3.00;2.70;;;23.00;87.10;;;;;;7570084;78;26273;-56
2022/08/31 02:50:05;;;;;;;7.03;2.72;;;23.00;87.10;;;;;;7441875;79;26788;-56
2022/08/31 03:00:08;;;;;;;7.40;2.67;;;23.00;87.20;;;;;;7527018;78;26360;-57
2022/08/31 03:10:13;;;;;;;7.37;2.50;;;22.90;87.10;;;;;;7504449;78;26309;-58
2022/08/31 03:20:18;;;;;;;3.92;2.70;;;23.00;87.10;;;;;;7440115;79;26317;-56
2022/08/31 03:30:22;;;;;;;5.60;2.67;;;22.90;87.20;;;;;;7381460;80;26312;-57
2022/08/31 03:40:24;;;;;;;4.62;2.67;;;22.90;87.40;;;;;;7448896;78;26323;-57
2022/08/31 03:50:27;;;;;;;4.83;2.75;;;22.90;87.30;;;;;;7471344;78;26254;-57
2022/08/31 04:00:30;;;;;;;4.20;2.52;;;22.90;87.90;;;;;;7589965;78;26817;-57
2022/08/31 04:10:32;;;;;;;4.67;2.85;;;22.80;87.80;;;;;;7546573;78;26340;-56
2022/08/31 04:20:37;;;;;;;4.72;2.87;;;22.90;87.50;;;;;;7507493;78;26266;-56
2022/08/31 04:30:42;;;;;;;3.47;2.52;;;22.80;87.70;;;;;;7564104;78;26280;-57
2022/08/31 04:40:44;;;;;;;5.00;2.72;;;22.80;88.40;;;;;;7504333;78;26580;-57
2022/08/31 04:50:49;;;;;;;3.25;2.37;;;22.80;88.60;;;;;;7460602;78;26298;-57
2022/08/31 05:00:51;;;;;;;4.37;2.80;;;22.80;88.90;;;;;;7502189;79;26253;-57
2022/08/31 05:10:54;;;;;;;9.80;3.15;;;22.80;89.00;;;;;;7584886;78;26245;-56
2022/08/31 05:20:56;;;;;;;6.03;2.60;;;22.80;89.20;;;;;;7499232;78;26253;-57
2022/08/31 05:31:00;;;;;;;4.25;3.00;;;22.70;90.10;;;;;;7626846;78;26700;-57
2022/08/31 05:41:04;;;;;;;4.55;2.83;;;22.70;90.30;;;;;;7480119;78;26296;-58
2022/08/31 05:51:16;;;;;;;8.55;3.60;;;22.70;90.20;;;;;;7443829;78;27411;-54
2022/08/31 06:01:22;;;;;;;10.95;3.33;;;22.70;90.50;;;;;;7427323;78;26829;-58
2022/08/31 06:11:28;;;;;;;10.93;3.52;;;22.70;90.60;;;;;;7423277;79;26325;-56
2022/08/31 06:21:32;;;;;;;7.50;3.17;;;22.60;90.90;;;;;;7426184;78;26372;-57
2022/08/31 06:31:37;;;;;;;6.70;2.92;;;22.60;91.10;;;;;;7428670;78;26277;-55
2022/08/31 06:41:40;;;;;;;4.67;2.95;;;22.60;91.40;;;;;;7453088;78;26343;-56
2022/08/31 06:51:43;;;;;;;7.17;3.35;;;22.60;91.40;;;;;;7450030;78;26363;-57
2022/08/31 07:01:46;;;;;;;12.43;3.20;;;22.60;91.60;;;;;;7490019;78;26303;-57
2022/08/31 07:11:51;;;;;;;8.50;3.37;;;22.60;91.90;;;;;;7479207;79;27463;-56
2022/08/31 07:21:56;;;;;;;5.93;2.73;;;22.50;91.80;;;;;;7486346;78;26264;-55
2022/08/31 07:31:59;;;;;;;6.50;3.30;;;22.50;91.80;;;;;;7486289;78;26334;-58
2022/08/31 07:42:10;;;;;;;8.08;3.67;;;22.50;92.20;;;;;;7490291;79;26252;-55
2022/08/31 07:52:15;;;;;;;8.20;3.60;;;22.50;92.20;;;;;;7431307;78;26868;-56
2022/08/31 08:02:17;;;;;;;11.90;3.58;;;22.50;92.60;;;;;;7432113;78;26276;-56
2022/08/31 08:12:20;;;;;;;8.08;3.27;;;22.50;92.80;;;;;;7437673;78;26278;-57
2022/08/31 08:22:23;;;;;;;4.85;3.40;;;22.50;92.70;;;;;;7475406;79;26284;-57
2022/08/31 08:32:26;;;;;;;5.83;3.63;;;22.50;93.70;;;;;;7522387;78;26273;-58
2022/08/31 08:42:28;;;;;;;4.75;3.15;;;22.20;94.70;;;;;;7429802;78;26338;-57
2022/08/31 08:52:41;;;;;;;5.57;3.17;;;22.40;93.90;;;;;;7436869;79;26555;-57
2022/08/31 09:03:05;;;;;;;20.43;4.65;;;22.40;93.80;;;;;;7432463;78;26265;-55
2022/08/31 09:13:20;;;;;;;24.43;6.47;;;22.40;96.00;;;;;;7433661;78;26411;-53
2022/08/31 09:23:25;;;;;;;10.30;6.10;;;22.10;99.20;;;;;;7415348;79;27186;-55
2022/08/31 09:33:34;;;;;;;11.07;5.40;;;22.30;98.90;;;;;;7436763;78;26286;-57
2022/08/31 09:43:37;;;;;;;9.93;4.13;;;22.30;99.70;;;;;;7446787;78;26309;-56
2022/08/31 10:04:21;;;;;;;9.77;4.07;;;22.20;98.40;;;;;;7435780;78;26354;-58
2022/08/31 10:14:29;;;;;;;10.73;4.40;;;22.20;99.10;;;;;;7453661;78;26351;-55
2022/08/31 10:24:45;;;;;;;6.30;4.10;;;22.10;99.40;;;;;;7510921;78;27080;-58
2022/08/31 10:35:04;;;;;;;5.73;3.80;;;22.20;98.90;;;;;;7557941;78;26269;-56
2022/08/31 10:45:14;;;;;;;6.62;4.85;;;22.20;99.00;;;;;;7426717;78;26265;-58
2022/08/31 10:55:29;;;;;;;8.87;4.70;;;22.20;99.40;;;;;;7446664;78;26288;-59
2022/08/31 11:05:36;;;;;;;24.67;8.78;;;22.20;98.90;;;;;;7416294;79;26359;-58
2022/08/31 11:16:01;;;;;;;25.97;10.55;;;22.20;99.30;;;;;;7486271;78;26256;-58
2022/08/31 11:26:23;;;;;;;19.87;7.80;;;22.20;99.30;;;;;;7436959;79;26284;-59
2022/08/31 11:36:55;;;;;;;19.30;6.45;;;22.20;98.50;;;;;;7486856;78;26708;-58
2022/08/31 11:47:06;;;;;;;16.50;5.97;;;22.40;99.40;;;;;;7475765;78;26367;-59
2022/08/31 11:57:14;;;;;;;13.03;5.40;;;22.40;99.40;;;;;;7491282;79;26841;-58
2022/08/31 12:07:31;;;;;;;9.43;4.17;;;22.30;99.30;;;;;;7414342;78;26249;-60
2022/08/31 12:17:45;;;;;;;6.17;3.73;;;22.40;98.90;;;;;;7426326;78;26354;-59
2022/08/31 12:28:04;;;;;;;5.83;3.70;;;22.40;98.40;;;;;;7432408;78;26335;-59
2022/08/31 12:38:09;;;;;;;5.17;3.08;;;22.30;97.10;;;;;;7452402;79;27265;-60
2022/08/31 12:48:23;;;;;;;7.12;3.75;;;22.40;98.20;;;;;;7437631;78;26289;-57
2022/08/31 12:58:41;;;;;;;6.65;3.75;;;22.50;97.40;;;;;;7458635;78;26252;-61
2022/08/31 13:08:49;;;;;;;4.97;3.47;;;22.40;96.40;;;;;;7449692;78;26280;-60
2022/08/31 13:18:55;;;;;;;6.95;4.15;;;22.50;97.20;;;;;;7427695;79;27115;-59
2022/08/31 13:29:03;;;;;;;10.10;3.40;;;22.60;96.70;;;;;;7435661;78;26331;-58
2022/08/31 13:39:27;;;;;;;6.12;3.40;;;22.50;95.80;;;;;;7411560;78;26309;-57
2022/08/31 13:49:39;;;;;;;9.85;3.52;;;22.50;96.50;;;;;;7432490;79;26246;-57
2022/08/31 13:59:42;;;;;;;7.08;2.85;;;22.50;96.00;;;;;;7397461;78;27279;-58
2022/08/31 14:09:46;;;;;;;8.93;3.47;;;22.70;95.30;;;;;;7446944;78;26370;-58
2022/08/31 14:19:48;;;;;;;6.63;3.23;;;22.70;94.90;;;;;;7433088;78;26351;-59
2022/08/31 14:29:51;;;;;;;10.25;3.72;;;22.60;94.00;;;;;;7438561;78;26277;-57
2022/08/31 14:39:56;;;;;;;8.20;3.40;;;22.70;94.90;;;;;;7443180;78;27237;-59
2022/08/31 14:50:04;;;;;;;6.78;3.22;;;22.70;93.50;;;;;;7431152;78;26276;-59
2022/08/31 15:00:05;;;;;;;13.40;3.15;;;22.70;93.20;;;;;;7433831;78;26362;-57
2022/08/31 15:10:15;;;;;;;12.03;3.30;;;22.60;92.70;;;;;;7423825;78;26288;-60
2022/08/31 15:20:15;;;;;;;5.45;3.05;;;22.60;93.30;;;;;;7426108;79;26276;-58
2022/08/31 15:30:19;;;;;;;51.10;11.95;;;22.60;92.70;;;;;;7432350;78;26276;-59
2022/08/31 15:40:22;;;;;;;50.33;10.72;;;22.60;92.80;;;;;;7427880;78;26373;-61
2022/08/31 15:50:27;;;;;;;15.45;5.20;;;22.70;93.60;;;;;;7435702;78;26308;-61
2022/08/31 16:00:31;;;;;;;33.92;7.45;;;22.70;91.20;;;;;;7409485;79;26305;-60
2022/08/31 16:10:35;;;;;;;12.80;5.03;;;22.70;92.50;;;;;;7457530;78;26790;-59
2022/08/31 16:20:38;;;;;;;11.50;3.97;;;22.60;90.50;;;;;;7497656;78;26356;-59
2022/08/31 16:30:42;;;;;;;9.58;3.22;;;22.70;90.50;;;;;;7607388;78;26273;-60
2022/08/31 16:40:45;;;;;;;10.50;3.50;;;22.70;90.10;;;;;;7431509;78;27246;-60
2022/08/31 16:50:48;;;;;;;5.12;3.40;;;22.70;89.30;;;;;;7438334;78;26281;-59
2022/08/31 17:00:50;;;;;;;5.25;2.92;;;22.70;87.90;;;;;;7432854;78;26378;-60
2022/08/31 17:10:53;;;;;;;7.10;3.60;;;22.70;86.90;;;;;;7422677;79;26265;-60
2022/08/31 17:20:56;;;;;;;7.75;3.45;;;22.70;89.40;;;;;;7429081;78;26828;-60
2022/08/31 17:31:00;;;;;;;8.98;3.37;;;22.70;90.10;;;;;;7419762;78;26273;-60
2022/08/31 17:41:10;;;;;;;9.73;3.65;;;22.60;87.80;;;;;;7414781;79;26292;-59
2022/08/31 17:51:30;;;;;;;10.20;3.92;;;22.70;90.70;;;;;;7435614;78;26292;-60
2022/08/31 18:01:34;;;;;;;18.40;3.75;;;22.60;90.40;;;;;;7422048;78;26398;-61
2022/08/31 18:11:42;;;;;;;7.47;3.10;;;22.70;91.30;;;;;;7424296;79;26898;-60
2022/08/31 18:21:43;;;;;;;6.50;3.22;;;22.70;91.40;;;;;;7418961;78;26305;-61
2022/08/31 18:31:52;;;;;;;8.75;3.08;;;22.70;91.70;;;;;;7419929;78;26427;-59
2022/08/31 18:52:21;;;;;;;5.00;3.08;;;22.70;91.80;;;;;;7413960;78;26327;-60
2022/08/31 19:02:21;;;;;;;7.53;3.35;;;22.70;91.80;;;;;;7436385;78;26398;-59
2022/08/31 19:12:25;;;;;;;8.75;3.45;;;22.70;91.80;;;;;;7479836;78;26948;-59
2022/08/31 19:22:27;;;;;;;11.10;2.80;;;22.70;92.40;;;;;;7453081;79;26256;-58
2022/08/31 19:32:30;;;;;;;12.35;2.98;;;22.70;92.60;;;;;;7444986;78;26735;-59
2022/08/31 19:42:35;;;;;;;14.90;3.20;;;22.70;92.70;;;;;;7453942;78;26316;-59
2022/08/31 19:52:38;;;;;;;23.07;4.37;;;22.70;92.90;;;;;;7422599;79;26426;-60
2022/08/31 20:02:41;;;;;;;18.62;3.72;;;22.70;93.50;;;;;;7436460;78;26358;-58
2022/08/31 20:12:44;;;;;;;7.17;3.15;;;22.70;93.10;;;;;;7477164;78;26915;-60
2022/08/31 20:22:47;;;;;;;10.03;2.70;;;22.60;93.10;;;;;;7448468;78;26347;-59
2022/08/31 20:32:49;;;;;;;11.53;3.75;;;22.70;92.90;;;;;;7479758;78;26368;-60
2022/08/31 20:42:53;;;;;;;9.68;3.72;;;22.60;92.80;;;;;;7474894;78;26380;-59
2022/08/31 20:52:56;;;;;;;7.15;2.80;;;22.60;92.70;;;;;;7467494;79;26328;-59
2022/08/31 21:02:59;;;;;;;3.30;2.55;;;22.60;92.60;;;;;;7451798;78;26284;-59
2022/08/31 21:13:02;;;;;;;9.77;2.73;;;22.60;92.50;;;;;;7501664;78;26820;-60
2022/08/31 21:23:09;;;;;;;6.40;3.10;;;22.50;92.40;;;;;;7498390;78;26261;-60
2022/08/31 21:33:09;;;;;;;6.70;2.70;;;22.50;92.70;;;;;;7500712;78;26363;-60
2022/08/31 21:43:11;;;;;;;6.37;2.40;;;22.50;92.40;;;;;;7491548;78;26267;-60
2022/08/31 21:53:14;;;;;;;3.00;2.22;;;22.50;92.20;;;;;;7479974;79;27029;-60
2022/08/31 22:03:18;;;;;;;2.90;2.10;;;22.50;92.10;;;;;;7487604;78;26335;-60
2022/08/31 22:13:20;;;;;;;3.05;2.65;;;22.50;92.30;;;;;;7478264;79;26296;-59
2022/08/31 22:23:23;;;;;;;6.55;2.77;;;22.50;92.10;;;;;;7482787;78;26359;-57
2022/08/31 22:33:25;;;;;;;4.00;2.33;;;22.40;92.00;;;;;;7486954;78;26285;-59
2022/08/31 22:43:28;;;;;;;4.15;2.40;;;22.40;92.00;;;;;;7483583;79;27167;-60
2022/08/31 22:53:30;;;;;;;3.57;1.93;;;22.40;91.90;;;;;;7481544;78;26334;-61
2022/08/31 23:03:33;;;;;;;2.42;2.20;;;22.40;92.00;;;;;;7474804;78;26295;-61
2022/08/31 23:13:51;;;;;;;2.50;2.00;;;22.40;92.00;;;;;;7485074;79;26802;-63
2022/08/31 23:23:55;;;;;;;4.83;2.23;;;22.30;91.90;;;;;;7486672;79;26325;-59
2022/08/31 23:33:57;;;;;;;5.42;2.20;;;22.30;92.00;;;;;;7463933;78;26283;-58
2022/08/31 23:44:03;;;;;;;3.98;2.10;;;22.30;92.00;;;;;;7484450;78;26265;-59
2022/08/31 23:54:06;;;;;;;3.33;2.10;;;22.30;92.00;;;;;;7497851;79;26332;-58
